Time;durP1;ratioP1;P1;durP2;ratioP2;P2;SDS_P1;SDS_P2;PMS_P1;PMS_P2;Temp;Humidity;BMP_temperature;BMP_pressure;BME280_temperature;BME280_humidity;BME280_pressure;Samples;Min_cycle;Max_cycle;Signal;HPM_P1;HPM_P2
2022/09/18 00:01:40;;;;;;;14.60;2.05;;;9.30;99.30;;;;;;5027856;28;20428;-72
2022/09/18 00:04:07;;;;;;;10.57;2.15;;;9.10;99.20;;;;;;5020300;28;20509;-71
2022/09/18 00:06:37;;;;;;;17.52;1.58;;;9.10;99.30;;;;;;5029260;28;20040;-72
2022/09/18 00:09:05;;;;;;;9.05;1.73;;;9.10;99.30;;;;;;5028801;28;20075;-71
2022/09/18 00:11:35;;;;;;;14.07;2.05;;;9.00;99.20;;;;;;5031628;28;20371;-71
2022/09/18 00:14:02;;;;;;;9.45;1.77;;;8.90;99.20;;;;;;5032227;28;20025;-71
2022/09/18 00:16:28;;;;;;;14.57;1.77;;;8.80;99.20;;;;;;5027215;28;20461;-71
2022/09/18 00:18:53;;;;;;;13.38;1.60;;;8.80;99.30;;;;;;5032763;28;20037;-71
2022/09/18 00:21:23;;;;;;;18.15;2.25;;;8.80;99.30;;;;;;5023919;28;20136;-71
2022/09/18 00:23:49;;;;;;;4.80;1.45;;;8.70;99.20;;;;;;5026761;28;20461;-71
2022/09/18 00:26:17;;;;;;;12.80;2.08;;;8.70;99.30;;;;;;5013939;28;20046;-71
2022/09/18 00:28:43;;;;;;;7.10;1.35;;;8.80;99.30;;;;;;5024821;28;20030;-71
2022/09/18 00:31:12;;;;;;;13.75;1.73;;;8.70;99.20;;;;;;5027033;28;20649;-71
2022/09/18 00:33:38;;;;;;;15.80;1.83;;;8.70;99.20;;;;;;5025873;28;20030;-71
2022/09/18 00:36:06;;;;;;;11.63;1.92;;;8.70;99.10;;;;;;5024099;28;20120;-71
2022/09/18 00:38:32;;;;;;;11.48;1.58;;;8.60;99.10;;;;;;5027925;28;20029;-71
2022/09/18 00:40:58;;;;;;;13.20;1.73;;;8.60;99.00;;;;;;5029709;28;20036;-71
2022/09/18 00:43:27;;;;;;;13.63;1.98;;;8.50;98.90;;;;;;5026719;28;20199;-71
2022/09/18 00:46:00;;;;;;;13.15;1.73;;;8.40;99.00;;;;;;5018715;28;20057;-72
2022/09/18 00:48:44;;;;;;;14.68;1.13;;;8.40;99.00;;;;;;5031676;28;20033;-71
2022/09/18 00:51:10;;;;;;;10.73;1.85;;;8.30;99.00;;;;;;5024364;28;20072;-71
2022/09/18 00:53:39;;;;;;;12.38;2.00;;;8.30;99.00;;;;;;5023673;28;20052;-71
2022/09/18 00:56:07;;;;;;;12.15;1.90;;;8.10;98.80;;;;;;5026395;28;20084;-72
2022/09/18 00:58:32;;;;;;;11.52;1.50;;;8.10;99.00;;;;;;5023623;28;20025;-72
2022/09/18 01:01:01;;;;;;;12.25;1.42;;;8.10;98.90;;;;;;5022645;28;20072;-71
2022/09/18 01:03:28;;;;;;;7.25;1.58;;;8.10;98.80;;;;;;5032171;28;20033;-72
2022/09/18 01:06:30;;;;;;;13.60;1.50;;;8.10;98.90;;;;;;5032025;28;20042;-72
2022/09/18 01:09:14;;;;;;;10.18;1.55;;;8.00;98.90;;;;;;5027972;28;20124;-72
2022/09/18 01:12:01;;;;;;;19.23;1.77;;;7.90;98.80;;;;;;5020963;28;20486;-71
2022/09/18 01:14:35;;;;;;;22.15;2.15;;;7.90;98.90;;;;;;5026976;28;20026;-71
2022/09/18 01:17:10;;;;;;;15.48;1.75;;;7.90;98.90;;;;;;5028416;28;20057;-71
2022/09/18 01:19:41;;;;;;;8.93;1.45;;;7.80;98.90;;;;;;5029106;28;20037;-71
2022/09/18 01:22:14;;;;;;;;;;;7.80;99.00;;;;;;5020907;28;20045;-71
2022/09/18 01:24:48;;;;;;;12.90;1.80;;;7.90;99.00;;;;;;5030765;28;19924;-71
2022/09/18 01:27:34;;;;;;;15.90;2.05;;;7.90;99.10;;;;;;5023274;28;20033;-71
2022/09/18 01:30:10;;;;;;;13.20;1.70;;;8.00;99.00;;;;;;5020755;28;20030;-71
2022/09/18 01:33:04;;;;;;;15.88;1.63;;;8.00;99.00;;;;;;5027547;28;20061;-71
2022/09/18 01:35:43;;;;;;;9.75;1.85;;;7.90;98.90;;;;;;5030018;28;20040;-71
2022/09/18 01:38:12;;;;;;;9.90;1.63;;;7.90;99.00;;;;;;5030941;28;20393;-71
2022/09/18 01:40:52;;;;;;;14.63;1.80;;;7.90;99.00;;;;;;5032289;28;20025;-71
2022/09/18 01:43:20;;;;;;;18.55;1.70;;;7.90;99.10;;;;;;5024565;28;20089;-71
2022/09/18 01:45:49;;;;;;;10.38;2.00;;;7.80;99.00;;;;;;5016997;28;20045;-71
2022/09/18 01:48:26;;;;;;;12.25;1.45;;;7.70;99.00;;;;;;5027872;28;20053;-71
2022/09/18 01:50:58;;;;;;;8.93;1.55;;;7.70;99.00;;;;;;5023513;28;20068;-72
2022/09/18 01:53:29;;;;;;;14.82;1.73;;;7.60;99.10;;;;;;5027909;28;20454;-71
2022/09/18 01:56:19;;;;;;;10.38;1.52;;;7.60;99.20;;;;;;5023459;28;20037;-71
2022/09/18 01:58:47;;;;;;;10.55;2.15;;;7.60;99.10;;;;;;5026519;28;20500;-71
2022/09/18 02:01:17;;;;;;;8.82;1.25;;;7.50;99.20;;;;;;5018328;28;20025;-72
2022/09/18 02:04:01;;;;;;;10.27;1.85;;;7.50;99.20;;;;;;5026609;28;20034;-71
2022/09/18 02:06:50;;;;;;;10.25;1.98;;;7.50;99.30;;;;;;5021017;28;20412;-71
2022/09/18 02:09:16;;;;;;;19.58;1.95;;;7.60;99.40;;;;;;5027855;28;20091;-72
2022/09/18 02:11:47;;;;;;;24.27;2.55;;;7.70;99.30;;;;;;5024946;28;20424;-71
2022/09/18 02:14:24;;;;;;;13.77;1.60;;;7.70;99.30;;;;;;5029804;28;20041;-71
2022/09/18 02:16:56;;;;;;;16.38;1.60;;;7.80;99.40;;;;;;5023732;28;20033;-71
2022/09/18 02:19:34;;;;;;;10.10;1.88;;;7.90;99.40;;;;;;5028714;28;20431;-71
2022/09/18 02:22:03;;;;;;;21.20;2.70;;;7.90;99.40;;;;;;5027533;28;20037;-71
2022/09/18 02:24:34;;;;;;;13.70;1.83;;;8.00;99.40;;;;;;5031264;28;20380;-71
2022/09/18 02:27:02;;;;;;;14.93;1.67;;;8.10;99.20;;;;;;5020534;28;20500;-71
2022/09/18 02:29:28;;;;;;;9.10;1.65;;;8.10;99.30;;;;;;5028837;28;20428;-71
2022/09/18 02:31:54;;;;;;;11.38;1.65;;;8.10;99.20;;;;;;5026982;28;20037;-71
2022/09/18 02:34:20;;;;;;;9.10;1.88;;;8.10;99.20;;;;;;5033540;28;20037;-71
2022/09/18 02:37:18;;;;;;;12.40;1.50;;;8.10;99.10;;;;;;5018971;28;20029;-71
2022/09/18 02:39:59;;;;;;;11.57;1.83;;;8.00;99.10;;;;;;5026913;28;20061;-72
2022/09/18 02:42:37;;;;;;;;;;;8.00;99.10;;;;;;5036718;28;20457;-71
2022/09/18 02:45:19;;;;;;;9.55;1.65;;;8.00;99.10;;;;;;5027383;28;19917;-71
2022/09/18 02:48:01;;;;;;;11.27;1.48;;;8.00;99.00;;;;;;5034090;28;20481;-71
2022/09/18 02:50:27;;;;;;;14.23;2.03;;;8.00;99.00;;;;;;5028356;28;20034;-71
2022/09/18 02:53:21;;;;;;;20.40;2.00;;;8.00;99.10;;;;;;5030268;28;20029;-71
2022/09/18 02:56:01;;;;;;;13.38;2.05;;;8.00;99.00;;;;;;5017002;28;20561;-71
2022/09/18 02:58:33;;;;;;;16.73;1.65;;;8.00;99.00;;;;;;5012791;28;20313;-72
2022/09/18 03:01:03;;;;;;;16.95;2.00;;;8.00;99.10;;;;;;5030489;28;20041;-71
2022/09/18 03:03:32;;;;;;;14.15;2.03;;;8.00;99.00;;;;;;5031480;28;20351;-71
2022/09/18 03:05:57;;;;;;;10.98;1.67;;;8.00;99.10;;;;;;5029276;28;20034;-72
2022/09/18 03:08:23;;;;;;;14.73;2.15;;;8.00;99.00;;;;;;5034237;28;20359;-71
2022/09/18 03:10:49;;;;;;;14.95;2.20;;;8.10;99.00;;;;;;5031120;28;20045;-72
2022/09/18 03:13:14;;;;;;;17.08;1.92;;;8.00;98.90;;;;;;5029983;28;20044;-71
2022/09/18 03:15:40;;;;;;;16.40;1.77;;;7.90;98.90;;;;;;5032365;28;20098;-71
2022/09/18 03:18:06;;;;;;;12.60;1.55;;;7.90;98.90;;;;;;5031463;28;20109;-72
2022/09/18 03:20:31;;;;;;;16.90;1.90;;;7.90;99.00;;;;;;5027326;28;20447;-71
2022/09/18 03:22:56;;;;;;;17.65;1.90;;;7.80;98.90;;;;;;5036331;28;20045;-71
2022/09/18 03:25:22;;;;;;;12.77;1.60;;;7.80;99.00;;;;;;5023782;28;20035;-71
2022/09/18 03:27:47;;;;;;;12.55;1.92;;;7.70;98.90;;;;;;5030576;28;20033;-71
2022/09/18 03:30:13;;;;;;;19.20;2.03;;;7.70;98.90;;;;;;5026578;28;20037;-71
2022/09/18 03:32:39;;;;;;;10.10;1.27;;;7.80;99.00;;;;;;5030108;28;20046;-71
2022/09/18 03:35:05;;;;;;;15.93;1.92;;;7.70;99.00;;;;;;5033470;28;20463;-71
2022/09/18 03:37:30;;;;;;;10.43;1.60;;;7.70;99.00;;;;;;5032789;28;20029;-71
2022/09/18 03:39:56;;;;;;;10.98;1.60;;;7.60;98.90;;;;;;5025549;28;20070;-71
2022/09/18 03:42:21;;;;;;;15.15;1.95;;;7.60;99.00;;;;;;5032223;28;20033;-71
2022/09/18 03:44:47;;;;;;;16.83;2.13;;;7.50;99.00;;;;;;5024922;28;20370;-71
2022/09/18 03:47:12;;;;;;;17.63;2.38;;;7.50;99.00;;;;;;5028753;28;20164;-71
2022/09/18 03:49:38;;;;;;;12.15;1.77;;;7.40;99.00;;;;;;5028650;28;20025;-71
2022/09/18 03:52:03;;;;;;;8.68;1.25;;;7.40;98.90;;;;;;5028989;28;20385;-71
2022/09/18 03:54:30;;;;;;;21.40;2.05;;;7.30;99.00;;;;;;5029517;28;20036;-71
2022/09/18 03:56:56;;;;;;;20.73;2.00;;;7.20;99.10;;;;;;5025736;28;20021;-71
2022/09/18 03:59:21;;;;;;;16.98;1.90;;;7.20;99.10;;;;;;5025303;28;20045;-71
2022/09/18 04:01:47;;;;;;;15.40;1.67;;;7.20;99.10;;;;;;5032481;28;20056;-72
2022/09/18 04:04:12;;;;;;;17.10;1.92;;;7.10;99.10;;;;;;5031741;28;20462;-72
2022/09/18 04:06:37;;;;;;;9.82;2.00;;;7.10;99.20;;;;;;5027253;28;20116;-71
2022/09/18 04:09:03;;;;;;;11.55;1.70;;;7.10;99.20;;;;;;5027933;28;20381;-71
2022/09/18 04:11:29;;;;;;;15.80;1.75;;;7.10;99.20;;;;;;5029606;28;20532;-71
2022/09/18 04:13:54;;;;;;;11.25;1.80;;;7.30;99.30;;;;;;5030622;28;20035;-71
2022/09/18 04:16:19;;;;;;;11.32;1.70;;;7.30;99.40;;;;;;5025901;28;20095;-71
2022/09/18 04:18:45;;;;;;;11.85;1.73;;;7.30;99.20;;;;;;5041013;28;20099;-72
2022/09/18 04:21:10;;;;;;;12.85;1.88;;;7.20;99.20;;;;;;5025366;28;20080;-73
2022/09/18 04:23:36;;;;;;;12.95;2.10;;;7.10;99.20;;;;;;5033122;28;20507;-71
2022/09/18 04:26:07;;;;;;;6.50;1.27;;;7.10;99.20;;;;;;5017604;28;20385;-71
2022/09/18 04:28:33;;;;;;;14.15;2.00;;;7.10;99.20;;;;;;5029254;28;20096;-71
2022/09/18 04:30:58;;;;;;;13.18;1.58;;;7.10;99.30;;;;;;5022374;28;20581;-70
2022/09/18 04:33:25;;;;;;;17.35;1.90;;;7.20;99.40;;;;;;5032069;28;20045;-70
2022/09/18 04:35:51;;;;;;;14.80;2.30;;;7.10;99.30;;;;;;5026759;28;20443;-70
2022/09/18 04:38:17;;;;;;;6.53;1.40;;;7.10;99.30;;;;;;5032952;28;20064;-70
2022/09/18 04:40:42;;;;;;;10.18;1.50;;;7.20;99.40;;;;;;5031974;28;20060;-70
2022/09/18 04:43:10;;;;;;;16.42;1.88;;;7.20;99.20;;;;;;5026435;28;20088;-70
2022/09/18 04:45:35;;;;;;;13.32;1.40;;;7.10;99.30;;;;;;5026766;28;20022;-70
2022/09/18 04:48:01;;;;;;;10.75;1.33;;;7.10;99.20;;;;;;5028111;28;20041;-70
2022/09/18 04:50:27;;;;;;;10.43;1.60;;;7.10;99.30;;;;;;5026077;28;20386;-70
2022/09/18 04:52:52;;;;;;;16.60;1.65;;;7.10;99.30;;;;;;5021019;28;20033;-70
2022/09/18 04:55:18;;;;;;;12.57;1.67;;;7.10;99.30;;;;;;5026388;28;20029;-70
2022/09/18 04:57:44;;;;;;;16.88;1.75;;;7.20;99.30;;;;;;5011545;28;20025;-72
2022/09/18 05:00:09;;;;;;;18.75;1.90;;;7.20;99.20;;;;;;5018489;28;20041;-70
2022/09/18 05:02:35;;;;;;;11.85;1.88;;;7.30;99.30;;;;;;5023172;28;20083;-70
2022/09/18 05:05:00;;;;;;;12.63;1.50;;;7.30;99.20;;;;;;5020927;28;20022;-70
2022/09/18 05:07:26;;;;;;;12.40;1.60;;;7.30;99.30;;;;;;5025948;28;20044;-70
2022/09/18 05:09:52;;;;;;;12.13;1.25;;;7.40;99.20;;;;;;5024629;28;20033;-70
2022/09/18 05:12:17;;;;;;;8.02;1.60;;;7.40;99.20;;;;;;5028829;28;20065;-69
2022/09/18 05:14:43;;;;;;;13.05;1.58;;;7.50;99.20;;;;;;5029977;28;20104;-70
2022/09/18 05:17:08;;;;;;;11.80;2.03;;;7.50;99.30;;;;;;5029525;28;20029;-70
2022/09/18 05:19:33;;;;;;;10.45;1.65;;;7.50;99.10;;;;;;5028302;28;20030;-70
2022/09/18 05:21:59;;;;;;;5.72;1.67;;;7.60;99.20;;;;;;5026473;28;20457;-70
2022/09/18 05:24:24;;;;;;;10.63;1.85;;;7.60;99.10;;;;;;5023642;28;20032;-70
2022/09/18 05:26:50;;;;;;;12.85;2.22;;;7.60;99.10;;;;;;5014552;28;20037;-71
2022/09/18 05:29:15;;;;;;;10.63;1.67;;;7.60;99.10;;;;;;5027907;28;20037;-70
2022/09/18 05:31:41;;;;;;;16.05;1.92;;;7.50;98.90;;;;;;5029188;28;20119;-70
2022/09/18 05:34:06;;;;;;;21.13;2.15;;;7.50;99.10;;;;;;5028288;28;20109;-70
2022/09/18 05:36:32;;;;;;;16.77;2.15;;;7.50;99.00;;;;;;5030353;28;20041;-70
2022/09/18 05:38:57;;;;;;;11.73;1.98;;;7.50;99.00;;;;;;5026768;28;20068;-70
2022/09/18 05:41:23;;;;;;;14.07;1.80;;;7.40;98.90;;;;;;5021598;28;20399;-70
2022/09/18 05:43:48;;;;;;;13.68;1.58;;;7.50;99.00;;;;;;5030064;28;20087;-72
2022/09/18 05:46:14;;;;;;;7.43;1.50;;;7.40;98.90;;;;;;5025822;28;20065;-70
2022/09/18 05:48:40;;;;;;;18.92;1.70;;;7.40;98.90;;;;;;5029065;28;20040;-70
2022/09/18 05:51:05;;;;;;;9.20;1.40;;;7.50;98.90;;;;;;5023528;28;20129;-72
2022/09/18 05:53:31;;;;;;;9.55;1.27;;;7.50;98.80;;;;;;5027473;28;20034;-70
2022/09/18 05:55:58;;;;;;;16.52;2.25;;;7.40;98.80;;;;;;5027759;28;20068;-70
2022/09/18 05:58:24;;;;;;;5.93;1.30;;;7.40;98.80;;;;;;5024903;28;20076;-69
2022/09/18 06:00:51;;;;;;;9.43;1.70;;;7.50;98.80;;;;;;5027303;28;20079;-71
2022/09/18 06:03:16;;;;;;;3.78;1.48;;;7.60;98.80;;;;;;5023145;28;20080;-72
2022/09/18 06:05:49;;;;;;;11.20;1.58;;;7.60;98.80;;;;;;5027462;28;20037;-70
2022/09/18 06:08:15;;;;;;;9.40;1.40;;;7.80;98.90;;;;;;5026880;28;20052;-70
2022/09/18 06:10:40;;;;;;;10.20;1.55;;;7.90;98.80;;;;;;5024689;28;20466;-70
2022/09/18 06:13:14;;;;;;;15.50;2.63;;;7.90;98.70;;;;;;5026095;28;20404;-70
2022/09/18 06:15:42;;;;;;;18.10;1.90;;;8.00;98.70;;;;;;5024757;28;20129;-70
2022/09/18 06:18:08;;;;;;;12.30;1.88;;;8.00;98.60;;;;;;5027834;28;20037;-71
2022/09/18 06:20:34;;;;;;;6.05;1.40;;;8.10;98.50;;;;;;5026428;28;20072;-71
2022/09/18 06:23:00;;;;;;;10.68;1.70;;;8.10;98.50;;;;;;5032702;28;20521;-70
2022/09/18 06:25:29;;;;;;;10.55;1.15;;;8.20;98.40;;;;;;5021828;28;20108;-70
2022/09/18 06:27:57;;;;;;;15.00;2.20;;;8.20;98.40;;;;;;5022389;28;20033;-70
2022/09/18 06:30:28;;;;;;;10.90;1.38;;;8.20;98.30;;;;;;5027615;28;20089;-70
2022/09/18 06:32:55;;;;;;;15.63;1.55;;;8.30;98.30;;;;;;5026286;28;20095;-73
2022/09/18 06:35:21;;;;;;;11.63;2.00;;;8.30;98.20;;;;;;5021427;28;20033;-71
2022/09/18 06:37:47;;;;;;;15.73;1.67;;;8.40;98.20;;;;;;5023396;28;20598;-70
2022/09/18 06:40:13;;;;;;;15.10;1.48;;;8.60;98.20;;;;;;5019764;28;20039;-70
2022/09/18 06:42:38;;;;;;;12.75;2.13;;;8.60;98.00;;;;;;5025921;28;20069;-70
2022/09/18 06:45:04;;;;;;;8.00;1.65;;;8.60;97.90;;;;;;5027587;28;20038;-69
2022/09/18 06:47:29;;;;;;;14.70;1.52;;;8.50;97.70;;;;;;5028620;28;20042;-70
2022/09/18 06:49:55;;;;;;;13.25;1.50;;;8.50;97.70;;;;;;5025467;28;20544;-70
2022/09/18 06:52:20;;;;;;;7.65;1.27;;;8.50;97.70;;;;;;5025510;28;21035;-72
2022/09/18 06:54:46;;;;;;;13.73;2.00;;;8.50;97.70;;;;;;5019062;28;20049;-70
2022/09/18 06:57:11;;;;;;;14.10;1.50;;;8.60;97.80;;;;;;5013878;28;20074;-69
2022/09/18 06:59:37;;;;;;;8.13;1.63;;;8.60;97.60;;;;;;5019943;28;20044;-70
2022/09/18 07:02:04;;;;;;;12.75;2.17;;;8.70;97.60;;;;;;5022693;28;20068;-72
2022/09/18 07:04:29;;;;;;;10.60;1.80;;;8.80;97.70;;;;;;5025262;28;20045;-72
2022/09/18 07:06:55;;;;;;;11.00;1.70;;;8.80;97.50;;;;;;5019477;28;20042;-71
2022/09/18 07:09:20;;;;;;;10.07;1.52;;;9.00;97.40;;;;;;5025072;28;20105;-71
2022/09/18 07:11:45;;;;;;;13.15;2.03;;;9.00;97.40;;;;;;5025854;28;20046;-71
2022/09/18 07:14:11;;;;;;;13.35;2.17;;;9.10;97.30;;;;;;5027938;28;20441;-72
2022/09/18 07:16:36;;;;;;;9.90;1.50;;;9.00;97.00;;;;;;5025119;28;20064;-71
2022/09/18 07:19:02;;;;;;;10.32;1.50;;;9.10;97.00;;;;;;5033822;28;20029;-72
2022/09/18 07:21:28;;;;;;;15.95;1.40;;;9.10;96.90;;;;;;5029339;28;20191;-71
2022/09/18 07:23:54;;;;;;;17.70;2.22;;;9.20;96.90;;;;;;5026262;28;20033;-73
2022/09/18 07:26:19;;;;;;;13.60;1.48;;;9.30;96.80;;;;;;5020513;28;20025;-72
2022/09/18 07:28:45;;;;;;;9.57;1.42;;;9.30;96.30;;;;;;5025306;28;20364;-71
2022/09/18 07:31:10;;;;;;;7.85;1.40;;;9.30;96.20;;;;;;5023183;28;20025;-71
2022/09/18 07:33:36;;;;;;;11.85;1.80;;;9.40;96.00;;;;;;5027412;28;20041;-71
2022/09/18 07:36:03;;;;;;;15.15;1.77;;;9.50;96.00;;;;;;5029291;28;20107;-71
2022/09/18 07:38:29;;;;;;;9.93;1.63;;;9.60;95.70;;;;;;5030313;28;20044;-73
2022/09/18 07:40:55;;;;;;;9.90;1.60;;;9.80;95.70;;;;;;5023338;28;20458;-71
2022/09/18 07:43:20;;;;;;;11.85;1.98;;;9.90;95.70;;;;;;5025293;28;20454;-72
2022/09/18 07:45:46;;;;;;;9.68;1.85;;;10.00;95.20;;;;;;5024042;28;20192;-72
2022/09/18 07:48:12;;;;;;;10.80;1.48;;;10.20;95.00;;;;;;5022117;28;20367;-71
2022/09/18 07:50:38;;;;;;;10.70;1.33;;;10.20;94.60;;;;;;5026056;28;20036;-73
2022/09/18 07:53:04;;;;;;;6.68;1.10;;;10.10;94.40;;;;;;5020763;28;20247;-71
2022/09/18 07:55:33;;;;;;;5.05;1.25;;;10.10;94.40;;;;;;5017490;28;20110;-71
2022/09/18 07:58:04;;;;;;;12.40;2.30;;;10.30;94.00;;;;;;5024790;28;20040;-71
2022/09/18 08:00:33;;;;;;;8.88;1.30;;;10.30;93.70;;;;;;5025330;28;20025;-71
2022/09/18 08:03:07;;;;;;;9.65;1.60;;;10.50;92.90;;;;;;5021597;28;20041;-71
2022/09/18 08:05:32;;;;;;;7.53;1.05;;;10.50;92.00;;;;;;5032301;28;20540;-70
2022/09/18 08:08:09;;;;;;;6.38;1.35;;;10.70;92.10;;;;;;5033149;28;20037;-70
2022/09/18 08:10:35;;;;;;;6.53;1.10;;;10.70;92.00;;;;;;5023071;28;20087;-70
2022/09/18 08:13:02;;;;;;;8.23;1.23;;;10.80;92.40;;;;;;5022990;28;20474;-69
2022/09/18 08:15:28;;;;;;;6.25;1.00;;;11.00;91.00;;;;;;5026831;28;20021;-71
2022/09/18 08:17:54;;;;;;;9.15;1.08;;;11.10;90.80;;;;;;5026606;28;20030;-70
2022/09/18 08:20:20;;;;;;;5.57;1.13;;;11.40;90.10;;;;;;5029034;28;20040;-70
2022/09/18 08:22:46;;;;;;;7.18;1.15;;;11.40;89.20;;;;;;5026580;28;20141;-72
2022/09/18 08:25:12;;;;;;;9.65;1.27;;;11.60;89.20;;;;;;5025088;28;20109;-71
2022/09/18 08:27:38;;;;;;;3.90;1.33;;;11.60;88.30;;;;;;5026143;28;20068;-71
2022/09/18 08:30:05;;;;;;;5.10;0.73;;;11.50;89.10;;;;;;5016072;28;20045;-72
2022/09/18 08:32:35;;;;;;;7.28;1.00;;;11.40;88.30;;;;;;5024383;28;20099;-69
2022/09/18 08:35:01;;;;;;;7.97;1.25;;;11.60;88.00;;;;;;5022873;28;20623;-70
2022/09/18 08:37:28;;;;;;;6.50;1.00;;;12.10;87.80;;;;;;5030235;28;20037;-73
2022/09/18 08:39:53;;;;;;;4.32;1.13;;;12.00;86.90;;;;;;5027251;28;20096;-71
2022/09/18 08:42:35;;;;;;;5.85;1.08;;;11.60;85.90;;;;;;5024603;28;20037;-73
2022/09/18 08:45:16;;;;;;;3.75;1.08;;;11.30;88.70;;;;;;5022455;28;20045;-72
2022/09/18 08:47:49;;;;;;;4.65;1.02;;;11.00;90.30;;;;;;5027787;28;20148;-71
2022/09/18 08:50:19;;;;;;;6.25;1.30;;;10.90;90.70;;;;;;5025100;28;20045;-72
2022/09/18 08:52:49;;;;;;;6.30;1.00;;;10.90;90.00;;;;;;5029337;28;20541;-71
2022/09/18 08:55:37;;;;;;;6.72;0.90;;;10.90;90.40;;;;;;5024196;28;20100;-72
2022/09/18 08:58:10;;;;;;;3.75;0.90;;;11.00;90.80;;;;;;5020106;28;20378;-72
2022/09/18 09:00:46;;;;;;;3.88;0.90;;;10.90;90.90;;;;;;5020465;28;20037;-74
2022/09/18 09:03:23;;;;;;;9.73;1.48;;;11.10;91.00;;;;;;5022094;28;20044;-72
2022/09/18 09:06:19;;;;;;;7.82;1.83;;;11.40;89.60;;;;;;5028381;28;20032;-73
2022/09/18 09:09:21;;;;;;;3.90;0.80;;;11.80;90.60;;;;;;5004788;28;20049;-72
2022/09/18 09:12:05;;;;;;;6.47;1.05;;;12.00;87.50;;;;;;5030493;28;20036;-70
2022/09/18 09:15:08;;;;;;;3.55;0.40;;;12.10;86.60;;;;;;5020615;28;20060;-71
2022/09/18 09:17:40;;;;;;;7.07;0.90;;;12.00;85.30;;;;;;5030209;28;20045;-70
2022/09/18 09:20:19;;;;;;;9.75;1.20;;;12.10;86.20;;;;;;5028114;28;20080;-71
2022/09/18 09:23:25;;;;;;;6.05;0.95;;;12.50;85.90;;;;;;5033846;28;20069;-72
2022/09/18 09:25:59;;;;;;;6.40;1.08;;;12.60;85.10;;;;;;4977256;28;20186;-70
2022/09/18 09:28:37;;;;;;;5.72;0.93;;;12.40;84.70;;;;;;5016213;28;20045;-70
2022/09/18 09:31:07;;;;;;;3.42;0.70;;;12.60;84.60;;;;;;5029459;28;20021;-71
2022/09/18 09:33:44;;;;;;;3.38;0.47;;;12.70;83.00;;;;;;5032492;28;20025;-69
2022/09/18 09:36:14;;;;;;;5.47;0.80;;;12.80;83.20;;;;;;5018445;28;20029;-70
2022/09/18 09:38:58;;;;;;;2.83;0.47;;;12.80;83.30;;;;;;5028127;28;20059;-69
2022/09/18 09:41:35;;;;;;;2.75;1.00;;;12.50;83.60;;;;;;5029941;28;20049;-69
2022/09/18 09:44:19;;;;;;;2.22;0.68;;;12.50;84.90;;;;;;5029865;28;20033;-69
2022/09/18 09:47:11;;;;;;;4.13;0.70;;;12.30;82.70;;;;;;5032537;28;20457;-70
2022/09/18 09:49:49;;;;;;;6.47;1.00;;;12.30;83.50;;;;;;5032252;28;20017;-70
2022/09/18 09:52:25;;;;;;;1.95;0.70;;;12.60;82.70;;;;;;5035312;28;20041;-70
2022/09/18 09:55:06;;;;;;;4.47;0.70;;;12.90;82.40;;;;;;5029384;28;20500;-70
2022/09/18 09:57:46;;;;;;;6.70;0.60;;;12.80;77.80;;;;;;5013548;28;20105;-70
2022/09/18 10:00:16;;;;;;;2.63;0.60;;;13.00;78.00;;;;;;5024965;28;20039;-71
2022/09/18 10:02:58;;;;;;;2.55;0.45;;;13.00;75.10;;;;;;5038329;28;20034;-70
2022/09/18 10:05:37;;;;;;;1.48;0.20;;;13.00;74.20;;;;;;5027290;28;20525;-70
2022/09/18 10:08:11;;;;;;;2.55;0.63;;;13.00;74.30;;;;;;5019058;28;20029;-71
2022/09/18 10:10:47;;;;;;;2.25;0.50;;;13.30;73.90;;;;;;5029872;28;20022;-70
2022/09/18 10:13:16;;;;;;;2.60;0.60;;;13.50;72.90;;;;;;5029407;28;20112;-70
2022/09/18 10:15:51;;;;;;;4.35;0.55;;;13.80;72.70;;;;;;5021127;28;20080;-70
2022/09/18 10:18:23;;;;;;;4.78;0.85;;;14.00;72.50;;;;;;5021790;28;20029;-69
2022/09/18 10:20:52;;;;;;;2.47;0.38;;;14.40;72.20;;;;;;5023603;28;20496;-69
2022/09/18 10:23:28;;;;;;;3.75;0.50;;;14.20;70.90;;;;;;5029682;28;20061;-70
2022/09/18 10:25:57;;;;;;;6.40;0.90;;;13.80;74.30;;;;;;5025194;28;20494;-70
2022/09/18 10:28:24;;;;;;;3.35;0.60;;;14.00;75.90;;;;;;5027356;28;20030;-70
2022/09/18 10:30:52;;;;;;;5.03;0.60;;;13.90;73.90;;;;;;5023870;28;20030;-71
2022/09/18 10:33:37;;;;;;;1.92;0.45;;;13.80;73.80;;;;;;5029943;28;20030;-70
2022/09/18 10:36:31;;;;;;;3.78;0.57;;;13.80;74.10;;;;;;5018953;28;20080;-71
2022/09/18 10:38:58;;;;;;;8.45;1.10;;;13.60;74.10;;;;;;5024887;28;20109;-70
2022/09/18 10:41:39;;;;;;;6.93;0.73;;;13.50;75.80;;;;;;5024630;28;20049;-70
2022/09/18 10:44:13;;;;;;;7.50;1.33;;;13.60;74.80;;;;;;5034475;28;20029;-70
2022/09/18 10:46:57;;;;;;;7.28;0.93;;;13.40;74.80;;;;;;5032264;28;20033;-71
2022/09/18 10:49:27;;;;;;;6.03;1.15;;;13.10;75.40;;;;;;5034946;28;20052;-70
2022/09/18 10:52:20;;;;;;;6.43;1.30;;;13.00;77.20;;;;;;5035651;28;20029;-69
2022/09/18 10:55:01;;;;;;;6.65;1.27;;;12.60;81.20;;;;;;5031717;28;20160;-71
2022/09/18 10:57:33;;;;;;;5.47;0.88;;;11.60;87.90;;;;;;5027868;28;20045;-71
2022/09/18 11:00:00;;;;;;;6.88;0.98;;;10.70;90.20;;;;;;5029125;28;20460;-71
2022/09/18 11:02:33;;;;;;;5.30;0.90;;;10.60;91.50;;;;;;5031812;28;20040;-71
2022/09/18 11:05:01;;;;;;;5.60;0.80;;;10.70;92.40;;;;;;5028470;28;20441;-71
2022/09/18 11:07:26;;;;;;;3.05;0.98;;;11.10;92.90;;;;;;5026922;28;20025;-71
2022/09/18 11:09:52;;;;;;;2.67;0.60;;;11.50;90.40;;;;;;5031331;28;20382;-71
2022/09/18 11:12:23;;;;;;;3.25;0.60;;;11.80;89.60;;;;;;5027860;28;20420;-71
2022/09/18 11:14:54;;;;;;;;;;;12.00;87.70;;;;;;5032460;28;20037;-71
2022/09/18 11:17:31;;;;;;;;;;;12.30;88.80;;;;;;5034618;28;19905;-71
2022/09/18 11:19:59;;;;;;;2.50;0.80;;;12.60;87.60;;;;;;5031484;28;20361;-71
2022/09/18 11:22:48;;;;;;;4.93;0.73;;;12.80;85.30;;;;;;5031308;28;20064;-71
2022/09/18 11:25:25;;;;;;;8.05;1.00;;;13.00;86.20;;;;;;5023887;28;20025;-70
2022/09/18 11:27:56;;;;;;;3.42;0.60;;;13.10;83.50;;;;;;5029311;28;20087;-72
2022/09/18 11:30:24;;;;;;;3.47;0.75;;;13.30;82.80;;;;;;5027338;28;20466;-71
2022/09/18 11:33:25;;;;;;;4.22;0.82;;;13.60;82.40;;;;;;5020847;28;20128;-71
2022/09/18 11:35:58;;;;;;;4.30;0.87;;;13.30;79.60;;;;;;5015787;28;20033;-71
2022/09/18 11:38:25;;;;;;;3.00;0.80;;;13.80;79.10;;;;;;5032586;28;20717;-71
2022/09/18 11:40:54;;;;;;;5.07;0.77;;;14.10;78.50;;;;;;5026223;28;20040;-71
2022/09/18 11:43:28;;;;;;;6.18;1.20;;;13.60;77.30;;;;;;5031187;28;20087;-71
2022/09/18 11:46:26;;;;;;;4.85;0.90;;;13.50;77.80;;;;;;5020064;28;20133;-70
2022/09/18 11:49:00;;;;;;;6.47;1.02;;;13.30;80.00;;;;;;5028407;28;20484;-70
2022/09/18 11:51:55;;;;;;;1.15;0.38;;;12.90;80.30;;;;;;5038015;28;20963;-71
2022/09/18 11:54:28;;;;;;;2.72;0.47;;;11.70;79.10;;;;;;5028312;28;20577;-70
2022/09/18 11:57:00;;;;;;;3.17;0.45;;;10.80;82.60;;;;;;5023827;28;20116;-70
2022/09/18 11:59:41;;;;;;;1.80;0.30;;;10.90;87.10;;;;;;5033053;28;20052;-70
2022/09/18 12:02:39;;;;;;;2.53;0.38;;;11.00;87.20;;;;;;5025217;28;20034;-71
2022/09/18 12:05:25;;;;;;;1.55;0.47;;;11.40;86.70;;;;;;5018460;28;20029;-71
2022/09/18 12:08:14;;;;;;;4.07;0.73;;;11.10;84.20;;;;;;5030545;28;20029;-71
2022/09/18 12:11:06;;;;;;;1.95;0.52;;;11.30;86.90;;;;;;5027891;28;20141;-70
2022/09/18 12:13:31;;;;;;;2.83;0.90;;;11.40;84.00;;;;;;5031296;28;20029;-70
2022/09/18 12:16:21;;;;;;;3.53;0.95;;;11.90;82.90;;;;;;5021300;28;20454;-71
2022/09/18 12:19:00;;;;;;;3.55;0.50;;;12.10;80.70;;;;;;5027296;28;20037;-70
2022/09/18 12:21:37;;;;;;;4.22;1.02;;;12.60;77.60;;;;;;5016603;28;20060;-71
2022/09/18 12:24:03;;;;;;;6.22;0.80;;;13.00;77.50;;;;;;5026987;28;20458;-71
2022/09/18 12:26:55;;;;;;;3.53;0.60;;;13.30;75.70;;;;;;5027879;28;20537;-70
2022/09/18 12:29:39;;;;;;;3.85;0.60;;;12.90;80.70;;;;;;5029650;28;20029;-71
2022/09/18 12:32:37;;;;;;;5.88;1.10;;;12.20;77.80;;;;;;5027666;28;20477;-72
2022/09/18 12:35:21;;;;;;;9.38;1.02;;;11.70;79.70;;;;;;5028278;28;20029;-71
2022/09/18 12:37:58;;;;;;;5.78;1.15;;;11.40;82.60;;;;;;5020519;28;20548;-70
2022/09/18 12:40:37;;;;;;;5.95;0.95;;;11.00;84.50;;;;;;5025315;28;20367;-70
2022/09/18 12:43:14;;;;;;;3.67;0.60;;;10.70;86.60;;;;;;5029728;28;20041;-70
2022/09/18 12:46:10;;;;;;;6.97;0.88;;;10.50;87.00;;;;;;5013558;28;20486;-70
2022/09/18 12:48:48;;;;;;;5.45;0.98;;;10.50;88.30;;;;;;5035602;28;20037;-70
2022/09/18 12:51:23;;;;;;;7.45;1.15;;;11.30;89.90;;;;;;5017941;28;20097;-70
2022/09/18 12:53:59;;;;;;;3.40;0.90;;;12.30;89.10;;;;;;5030156;28;20038;-70
2022/09/18 12:56:34;;;;;;;4.60;0.93;;;13.10;84.20;;;;;;5020450;28;20037;-70
2022/09/18 12:59:07;;;;;;;3.05;0.85;;;13.40;82.40;;;;;;5029114;28;20041;-71
2022/09/18 13:01:48;;;;;;;3.70;0.77;;;13.50;80.30;;;;;;5033019;28;20045;-71
2022/09/18 13:04:13;;;;;;;;;;;13.30;79.30;;;;;;5031425;28;20045;-70
2022/09/18 13:06:46;;;;;;;4.70;0.80;;;12.70;81.70;;;;;;5014455;28;20277;-71
2022/09/18 13:09:24;;;;;;;5.40;0.73;;;11.60;83.10;;;;;;5028926;28;20067;-72
2022/09/18 13:12:01;;;;;;;4.35;0.70;;;10.80;86.70;;;;;;5028275;28;20094;-70
2022/09/18 13:14:38;;;;;;;3.97;0.80;;;10.00;87.20;;;;;;5031184;28;20037;-70